createdAt,value
2019-04-30T00:03:02.189Z,13.98
2019-04-30T00:06:34.636Z,13.99
2019-04-30T00:10:06.160Z,14.04
2019-04-30T00:13:36.290Z,13.91
2019-04-30T00:17:06.442Z,13.93
2019-04-30T00:20:38.757Z,14.02
2019-04-30T00:24:10.252Z,14.01
2019-04-30T00:27:40.460Z,14.04
2019-04-30T00:31:10.576Z,14.03
2019-04-30T00:34:40.665Z,14.04
2019-04-30T00:38:10.629Z,14.07
2019-04-30T00:41:44.056Z,14.06
2019-04-30T00:45:17.377Z,14.04
2019-04-30T00:48:47.571Z,14.02
2019-04-30T00:52:17.588Z,14.03
2019-04-30T00:55:48.498Z,14.1
2019-04-30T00:59:18.706Z,14.13
2019-04-30T01:00:19.623Z,14.14
2019-04-30T01:04:00.152Z,14.3
2019-04-30T01:07:31.177Z,14.37
2019-04-30T01:11:06.471Z,14.26
2019-04-30T01:14:39.364Z,14.21
2019-04-30T01:18:09.532Z,14.25
2019-04-30T01:21:46.542Z,14.21
2019-04-30T01:25:18.718Z,14.18
2019-04-30T01:28:53.681Z,14.17
2019-04-30T01:32:23.938Z,14.16
2019-04-30T01:35:54.019Z,14.2
2019-04-30T01:39:28.480Z,14.15
2019-04-30T01:43:01.471Z,14.13
2019-04-30T01:46:31.437Z,14.12
2019-04-30T01:50:04.926Z,14.08
2019-04-30T01:53:35.156Z,14.01
2019-04-30T01:57:50.388Z,14.04
2019-04-30T02:01:22.438Z,13.97
2019-04-30T02:04:52.473Z,14.02
2019-04-30T02:08:23.463Z,14.05
2019-04-30T02:11:53.465Z,14.03
2019-04-30T02:15:23.659Z,14.03
2019-04-30T02:18:53.678Z,13.97
2019-04-30T02:22:23.648Z,13.96
2019-04-30T02:25:53.711Z,13.93
2019-04-30T02:29:23.827Z,13.89
2019-04-30T02:32:53.868Z,13.93
2019-04-30T02:36:46.277Z,13.95
2019-04-30T02:40:16.357Z,14
2019-04-30T02:43:49.779Z,14.05
2019-04-30T02:47:21.710Z,14.05
2019-04-30T02:50:52.872Z,14.09
2019-04-30T02:54:29.669Z,14.07
2019-04-30T02:57:59.937Z,14.02
2019-04-30T03:00:20.598Z,14.01
2019-04-30T03:03:51.079Z,13.93
2019-04-30T03:07:21.199Z,13.91
2019-04-30T03:10:52.922Z,13.88
2019-04-30T03:14:23.052Z,13.8
2019-04-30T03:18:02.200Z,13.75
2019-04-30T03:21:41.923Z,13.8
2019-04-30T03:25:12.045Z,13.84
2019-04-30T03:28:42.153Z,13.77
2019-04-30T03:32:13.949Z,13.75
2019-04-30T03:35:47.706Z,13.81
2019-04-30T03:39:23.792Z,13.78
2019-04-30T03:42:53.862Z,13.76
2019-04-30T03:46:24.084Z,13.76
2019-04-30T03:49:54.124Z,13.73
2019-04-30T03:53:24.194Z,13.77
2019-04-30T03:56:57.032Z,13.81
2019-04-30T04:00:42.568Z,13.89
2019-04-30T04:04:20.115Z,13.99
2019-04-30T04:07:59.887Z,14.03
2019-04-30T04:11:35.249Z,14.17
2019-04-30T04:15:05.484Z,14.34
2019-04-30T04:18:35.540Z,14.42
2019-04-30T04:22:05.629Z,14.47
2019-04-30T04:25:35.778Z,14.58
2019-04-30T04:29:05.956Z,14.75
2019-04-30T04:32:35.941Z,14.87
2019-04-30T04:36:05.972Z,15.11
2019-04-30T04:39:36.176Z,15.27
2019-04-30T04:43:06.219Z,15.3
2019-04-30T04:46:36.249Z,15.44
2019-04-30T04:50:10.007Z,15.44
2019-04-30T04:53:40.459Z,15.62
2019-04-30T04:57:17.714Z,15.99
2019-04-30T05:00:15.993Z,16.07
2019-04-30T05:03:46.051Z,16.16
2019-04-30T05:07:16.124Z,16.16
2019-04-30T05:10:46.192Z,16.08
2019-04-30T05:14:19.008Z,16.15
2019-04-30T05:17:49.513Z,16.41
2019-04-30T05:21:19.747Z,16.35
2019-04-30T05:24:49.835Z,16.53
2019-04-30T05:28:19.909Z,16.63
2019-04-30T05:31:49.956Z,16.49
2019-04-30T05:35:20.041Z,16.29
2019-04-30T05:38:50.085Z,16.21
2019-04-30T05:42:20.089Z,16.11
2019-04-30T05:45:50.122Z,16.07
2019-04-30T05:49:20.481Z,16.15
2019-04-30T05:52:50.531Z,16.15
2019-04-30T05:56:20.662Z,16.25
2019-04-30T05:59:50.799Z,16.23
2019-04-30T06:03:28.184Z,16.38
2019-04-30T06:07:02.539Z,16.47
2019-04-30T06:10:39.721Z,16.51
2019-04-30T06:14:49.917Z,16.64
2019-04-30T06:18:21.716Z,16.73
2019-04-30T06:21:51.903Z,16.84
2019-04-30T06:25:31.783Z,16.92
2019-04-30T06:29:09.143Z,16.93
2019-04-30T06:32:39.606Z,16.93
2019-04-30T06:36:11.198Z,16.97
2019-04-30T06:39:41.447Z,17.08
2019-04-30T06:43:12.018Z,17.14
2019-04-30T06:46:42.324Z,17.36
2019-04-30T06:50:12.749Z,17.28
2019-04-30T06:53:42.920Z,17.48
2019-04-30T06:57:13.018Z,17.55
2019-04-30T07:00:16.141Z,17.8
2019-04-30T07:03:46.279Z,17.89
2019-04-30T07:07:21.329Z,18.1
2019-04-30T07:11:29.784Z,18.09
2019-04-30T07:15:00.856Z,18.23
2019-04-30T07:18:30.922Z,18.32
2019-04-30T07:22:00.962Z,18.38
2019-04-30T07:25:31.016Z,18.51
2019-04-30T07:29:02.577Z,18.5
2019-04-30T07:32:32.839Z,18.72
2019-04-30T07:36:03.087Z,18.59
2019-04-30T07:39:33.512Z,18.77
2019-04-30T07:43:03.674Z,18.86
2019-04-30T07:46:35.350Z,18.84
2019-04-30T07:50:10.968Z,18.96
2019-04-30T07:53:41.197Z,19.07
2019-04-30T07:57:11.272Z,19.16
2019-04-30T08:00:41.350Z,19.39
2019-04-30T08:04:51.150Z,19.36
2019-04-30T08:08:24.539Z,19.56
2019-04-30T08:11:55.470Z,19.76
2019-04-30T08:15:26.557Z,19.9
2019-04-30T08:18:56.656Z,19.96
2019-04-30T08:22:26.834Z,20.06
2019-04-30T08:25:58.627Z,19.99
2019-04-30T08:29:29.481Z,20.2
2019-04-30T08:32:59.770Z,20.38
2019-04-30T08:36:29.997Z,20.2
2019-04-30T08:40:03.521Z,20.54
2019-04-30T08:43:33.782Z,20.32
2019-04-30T08:47:03.861Z,20.62
2019-04-30T08:50:33.929Z,21.03
2019-04-30T08:54:04.111Z,21.09
2019-04-30T08:57:34.270Z,21.53
2019-04-30T09:00:17.170Z,21.87
2019-04-30T09:03:50.998Z,21.87
2019-04-30T09:07:21.377Z,22.08
2019-04-30T09:10:51.504Z,22.05
2019-04-30T09:14:21.578Z,22.52
2019-04-30T09:18:00.691Z,22.42
2019-04-30T09:21:35.867Z,22.52
2019-04-30T09:25:06.044Z,22.44
2019-04-30T09:28:36.098Z,22.6
2019-04-30T09:32:06.209Z,22.63
2019-04-30T09:35:36.224Z,22.54
2019-04-30T09:39:08.786Z,23.02
2019-04-30T09:42:39.129Z,23.58
2019-04-30T09:46:17.881Z,23.74
2019-04-30T09:49:52.574Z,23.62
2019-04-30T09:53:22.629Z,23.54
2019-04-30T09:56:52.866Z,23.47
2019-04-30T10:00:23.141Z,23.66
2019-04-30T10:03:53.501Z,23.92
2019-04-30T10:07:23.916Z,23.76
2019-04-30T10:11:12.630Z,23.67
2019-04-30T10:14:42.809Z,24
2019-04-30T10:18:14.559Z,24.26
2019-04-30T10:21:44.626Z,24.81
2019-04-30T10:25:14.903Z,25.14
2019-04-30T10:28:45.826Z,25.51
2019-04-30T10:32:15.846Z,25.86
2019-04-30T10:35:46.404Z,26.39
2019-04-30T10:39:16.630Z,27.05
2019-04-30T10:42:48.755Z,27.6
2019-04-30T10:46:19.319Z,27.84
2019-04-30T10:49:49.433Z,27.92
2019-04-30T10:53:19.491Z,28.03
2019-04-30T10:56:51.364Z,28.52
2019-04-30T11:00:16.383Z,28.52
2019-04-30T11:03:46.415Z,28.33
2019-04-30T11:07:18.534Z,27.84
2019-04-30T11:10:48.792Z,27.46
2019-04-30T11:14:18.892Z,27.98
2019-04-30T11:17:49.706Z,28.16
2019-04-30T11:21:20.958Z,27.96
2019-04-30T11:24:58.834Z,28.3
2019-04-30T11:28:31.986Z,27.8
2019-04-30T11:32:09.363Z,28.45
2019-04-30T11:35:39.680Z,28.61
2019-04-30T11:39:15.245Z,28.55
2019-04-30T11:42:45.347Z,28.96
2019-04-30T11:47:09.973Z,28.71
2019-04-30T11:50:40.063Z,28.43
2019-04-30T11:54:10.217Z,28.68
2019-04-30T11:57:40.347Z,29.09
2019-04-30T12:01:12.049Z,29.28
2019-04-30T12:04:42.081Z,28.55
2019-04-30T12:08:19.341Z,28.33
2019-04-30T12:11:50.722Z,28.07
2019-04-30T12:15:20.775Z,27.73
2019-04-30T12:18:50.764Z,27.41
2019-04-30T12:22:21.807Z,27.71
2019-04-30T12:25:51.851Z,28.01
2019-04-30T12:29:21.940Z,29.06
2019-04-30T12:32:51.991Z,29.72
2019-04-30T12:36:22.478Z,29.88
2019-04-30T12:39:52.595Z,30.19
2019-04-30T12:43:22.734Z,29.58
2019-04-30T12:46:52.859Z,29.39
2019-04-30T12:50:29.213Z,29.97
2019-04-30T12:54:03.313Z,30.36
2019-04-30T12:57:39.262Z,30.19
2019-04-30T13:00:16.317Z,29.48
2019-04-30T13:03:55.934Z,29
2019-04-30T13:07:30.413Z,29.87
2019-04-30T13:11:01.505Z,30.66
2019-04-30T13:14:32.071Z,31.35
2019-04-30T13:18:02.768Z,31.76
2019-04-30T13:21:32.868Z,32.1
2019-04-30T13:25:04.924Z,32.51
2019-04-30T13:28:49.867Z,33.17
2019-04-30T13:32:29.571Z,34.05
2019-04-30T13:36:02.461Z,34.94
2019-04-30T13:39:49.889Z,34.52
2019-04-30T13:43:58.729Z,34.35
2019-04-30T13:47:29.343Z,33.04
2019-04-30T13:50:59.508Z,32.04
2019-04-30T13:54:29.516Z,33.22
2019-04-30T13:57:59.532Z,33.93
2019-04-30T14:01:29.690Z,34.59
2019-04-30T14:05:12.243Z,35.48
2019-04-30T14:08:46.111Z,36.17
2019-04-30T14:12:16.315Z,36.98
2019-04-30T14:15:47.848Z,37.31
2019-04-30T14:19:19.550Z,38.25
2019-04-30T14:22:49.821Z,37.78
2019-04-30T14:26:20.924Z,37.39
2019-04-30T14:29:51.061Z,37.73
2019-04-30T14:33:26.253Z,37.8
2019-04-30T14:36:56.945Z,37.89
2019-04-30T14:40:29.686Z,37.69
2019-04-30T14:44:07.042Z,37.79
2019-04-30T14:47:49.919Z,38.94
2019-04-30T14:51:20.672Z,39.6
2019-04-30T14:54:59.536Z,39.39
2019-04-30T14:58:58.035Z,39.55
2019-04-30T15:00:59.362Z,39.09
2019-04-30T15:04:29.635Z,38.37
2019-04-30T15:08:00.935Z,37.48
2019-04-30T15:11:31.884Z,37.66
2019-04-30T15:15:02.474Z,38.18
2019-04-30T15:18:32.634Z,36.81
2019-04-30T15:22:03.973Z,34.83
2019-04-30T15:25:34.613Z,34.13
2019-04-30T15:29:11.764Z,32.86
2019-04-30T15:32:46.930Z,31.7
2019-04-30T15:36:16.994Z,31.05
2019-04-30T15:39:48.861Z,30.23
2019-04-30T15:43:19.248Z,29.92
2019-04-30T15:46:49.382Z,29.72
2019-04-30T15:50:19.636Z,29.8
2019-04-30T15:53:49.800Z,29.56
2019-04-30T15:57:19.962Z,28.71
2019-04-30T16:00:50.104Z,28.19
2019-04-30T16:04:29.626Z,27.25
2019-04-30T16:09:08.526Z,26.86
2019-04-30T16:13:00.782Z,26.12
2019-04-30T16:16:35.276Z,25.62
2019-04-30T16:20:05.683Z,25.75
2019-04-30T16:23:35.813Z,25.44
2019-04-30T16:27:06.667Z,24.99
2019-04-30T16:30:38.474Z,25.05
2019-04-30T16:34:08.556Z,24.95
2019-04-30T16:37:38.789Z,24.49
2019-04-30T16:41:08.999Z,24.12
2019-04-30T16:44:39.144Z,23.73
2019-04-30T16:48:09.806Z,23.13
2019-04-30T16:51:42.084Z,22.69
2019-04-30T16:55:12.396Z,22.32
2019-04-30T16:59:18.444Z,22
2019-04-30T17:00:16.930Z,21.92
2019-04-30T17:03:50.515Z,21.72
2019-04-30T17:07:28.894Z,21.77
2019-04-30T17:11:59.488Z,21.7
2019-04-30T17:15:30.398Z,21.6
2019-04-30T17:19:00.429Z,21.56
2019-04-30T17:22:31.244Z,21.42
2019-04-30T17:26:01.468Z,21.27
2019-04-30T17:29:31.581Z,21.28
2019-04-30T17:33:02.635Z,21.22
2019-04-30T17:36:32.787Z,21.19
2019-04-30T17:40:05.325Z,21.17
2019-04-30T17:43:35.410Z,21.12
2019-04-30T17:47:05.497Z,21.06
2019-04-30T17:50:35.729Z,21.11
2019-04-30T17:54:13.817Z,21.02
2019-04-30T17:57:43.963Z,20.96
2019-04-30T18:01:14.297Z,20.91
2019-04-30T18:04:44.508Z,20.91
2019-04-30T18:08:14.578Z,20.81
2019-04-30T18:11:44.802Z,20.77
2019-04-30T18:15:19.487Z,20.73
2019-04-30T18:18:55.342Z,20.34
2019-04-30T18:22:37.222Z,20.08
2019-04-30T18:26:11.112Z,20.04
2019-04-30T18:29:41.132Z,19.95
2019-04-30T18:33:11.307Z,19.91
2019-04-30T18:36:41.378Z,19.76
2019-04-30T18:40:11.788Z,19.63
2019-04-30T18:43:41.909Z,19.61
2019-04-30T18:47:12.059Z,19.4
2019-04-30T18:50:42.150Z,19.18
2019-04-30T18:54:12.313Z,19.09
2019-04-30T18:57:42.494Z,18.88
2019-04-30T19:00:24.650Z,18.91
2019-04-30T19:03:54.758Z,18.91
2019-04-30T19:07:35.759Z,18.58
2019-04-30T19:13:38.161Z,18.5
2019-04-30T19:17:31.172Z,18.27
2019-04-30T19:21:01.409Z,18.18
2019-04-30T19:24:31.520Z,17.72
2019-04-30T19:28:11.209Z,17.18
2019-04-30T19:31:44.131Z,16.99
2019-04-30T19:35:15.832Z,16.64
2019-04-30T19:38:45.949Z,16.53
2019-04-30T19:42:16.127Z,16.4
2019-04-30T19:45:46.259Z,16.18
2019-04-30T19:49:16.257Z,16.09
2019-04-30T19:52:46.231Z,16.11
2019-04-30T19:56:16.283Z,15.97
2019-04-30T19:59:46.338Z,15.95
2019-04-30T20:03:16.456Z,15.92
2019-04-30T20:06:48.593Z,15.95
2019-04-30T20:10:19.548Z,15.86
2019-04-30T20:13:49.796Z,15.88
2019-04-30T20:17:19.796Z,15.9
2019-04-30T20:20:52.704Z,15.9
2019-04-30T20:24:22.843Z,15.98
2019-04-30T20:27:52.885Z,16.14
2019-04-30T20:31:23.013Z,16
2019-04-30T20:34:52.988Z,15.95
2019-04-30T20:39:10.288Z,15.98
2019-04-30T20:42:40.446Z,16.05
2019-04-30T20:46:10.524Z,16.14
2019-04-30T20:49:40.559Z,16.21
2019-04-30T20:53:10.692Z,16.23
2019-04-30T20:56:40.797Z,16.24
2019-04-30T21:00:14.137Z,16.24
2019-04-30T21:03:44.264Z,16.25
2019-04-30T21:07:14.399Z,16.29
2019-04-30T21:10:44.411Z,16.41
2019-04-30T21:14:14.331Z,16.5
2019-04-30T21:17:44.386Z,16.58
2019-04-30T21:21:14.358Z,16.64
2019-04-30T21:24:44.487Z,16.56
2019-04-30T21:28:14.553Z,16.56
2019-04-30T21:33:09.351Z,16.62
2019-04-30T21:36:39.605Z,16.77
2019-04-30T21:40:09.765Z,16.75
2019-04-30T21:43:39.960Z,16.64
2019-04-30T21:47:09.992Z,16.55
2019-04-30T21:50:40.112Z,16.41
2019-04-30T21:54:10.215Z,16.37
2019-04-30T21:57:41.386Z,16.33
2019-04-30T22:01:21.043Z,16.37
2019-04-30T22:04:51.175Z,16.47
2019-04-30T22:08:21.226Z,16.53
2019-04-30T22:11:51.359Z,16.55
2019-04-30T22:15:21.369Z,16.39
2019-04-30T22:18:51.462Z,16.15
2019-04-30T22:22:21.492Z,16.2
2019-04-30T22:25:51.529Z,16.32
2019-04-30T22:29:21.463Z,16.25
2019-04-30T22:32:51.562Z,16.26
2019-04-30T22:36:29.780Z,16.33
2019-04-30T22:40:03.678Z,16.29
2019-04-30T22:43:33.939Z,16.24
2019-04-30T22:47:03.967Z,16.15
2019-04-30T22:50:33.963Z,16.1
2019-04-30T22:54:04.071Z,16.1
2019-04-30T22:57:34.200Z,15.93
2019-04-30T23:00:23.323Z,15.74
2019-04-30T23:03:54.731Z,15.65
2019-04-30T23:07:24.881Z,15.63
2019-04-30T23:10:55.006Z,15.53
2019-04-30T23:14:25.183Z,15.44
2019-04-30T23:17:55.381Z,15.28
2019-04-30T23:21:25.497Z,15.14
2019-04-30T23:24:55.524Z,15
2019-04-30T23:28:25.708Z,14.9
2019-04-30T23:31:55.799Z,14.78
2019-04-30T23:35:25.915Z,14.63
2019-04-30T23:38:55.840Z,14.44
2019-04-30T23:42:26.014Z,14.34
2019-04-30T23:45:56.872Z,14.27
2019-04-30T23:49:26.938Z,14.16
2019-04-30T23:52:56.948Z,14.18
2019-04-30T23:56:27.081Z,14.11
2019-04-30T23:59:57.188Z,14.05
